KPIR/PIR METAR and TAF weather

Enter ICAO airport designator
Station Type Date Time Source
KPIR METAR 2020/04/07 15:53 UTC NOAA

KPIR 071553Z AUTO 00000KT 10SM CLR 13/06 A2977 RMK AO2 SLP078 T01330061


Station Type Date Time Source
KPIR Decoded METAR 2020/04/07 15:53 UTC NOAA

PIERRE REGIONAL AIRPORT, SD, United States (KPIR) 44-23N 100-17W 526M
Apr 07, 2020 - 11:53 AM EDT / 2020.04.07 1553 UTC
Wind: Calm:0
Visibility: 10 mile(s):0
Sky conditions: clear
Temperature: 55.9 F (13.3 C)
Dew Point: 43.0 F (6.1 C)
Relative Humidity: 61%
Pressure (altimeter): 29.77 in. Hg (1008 hPa)
ob: KPIR 071553Z AUTO 00000KT 10SM CLR 13/06 A2977 RMK AO2 SLP078 T01330061
cycle: 16

Station Type Date Time Source
KPIR TAF 2020/04/07 12:30 UTC NOAA

TAF KPIR 071129Z 0712/0812 VRB05KT P6SM SCT250
FM071600 28010KT P6SM SCT250
FM080600 34010KT P6SM VCSH OVC100

Example: see airport list